sensor_id;sensor_type;location;lat;lon;timestamp;P1;durP1;ratioP1;P2;durP2;ratioP2
66485;SDS011;53303;47.476;8.084;2023-04-24T00:00:58;7.65;;;2.30;;
66485;SDS011;53303;47.476;8.084;2023-04-24T00:03:26;8.35;;;2.35;;
66485;SDS011;53303;47.476;8.084;2023-04-24T00:05:52;8.93;;;1.80;;
66485;SDS011;53303;47.476;8.084;2023-04-24T00:08:18;8.02;;;1.90;;
66485;SDS011;53303;47.476;8.084;2023-04-24T00:10:43;6.47;;;2.13;;
66485;SDS011;53303;47.476;8.084;2023-04-24T00:13:09;6.95;;;2.20;;
66485;SDS011;53303;47.476;8.084;2023-04-24T00:15:37;8.23;;;1.80;;
66485;SDS011;53303;47.476;8.084;2023-04-24T00:18:02;9.60;;;2.30;;
66485;SDS011;53303;47.476;8.084;2023-04-24T00:20:28;7.97;;;2.00;;
66485;SDS011;53303;47.476;8.084;2023-04-24T00:23:02;8.27;;;2.00;;
66485;SDS011;53303;47.476;8.084;2023-04-24T00:25:28;10.73;;;2.17;;
66485;SDS011;53303;47.476;8.084;2023-04-24T00:27:53;8.70;;;2.42;;
66485;SDS011;53303;47.476;8.084;2023-04-24T00:30:19;6.53;;;1.73;;
66485;SDS011;53303;47.476;8.084;2023-04-24T00:32:49;9.52;;;2.13;;
66485;SDS011;53303;47.476;8.084;2023-04-24T00:35:14;8.63;;;2.47;;
66485;SDS011;53303;47.476;8.084;2023-04-24T00:37:40;8.80;;;2.10;;
66485;SDS011;53303;47.476;8.084;2023-04-24T00:40:05;9.20;;;2.00;;
66485;SDS011;53303;47.476;8.084;2023-04-24T00:42:31;7.70;;;2.03;;
66485;SDS011;53303;47.476;8.084;2023-04-24T00:44:57;8.00;;;2.10;;
66485;SDS011;53303;47.476;8.084;2023-04-24T00:47:24;9.38;;;2.17;;
66485;SDS011;53303;47.476;8.084;2023-04-24T00:49:50;7.88;;;1.90;;
66485;SDS011;53303;47.476;8.084;2023-04-24T00:52:15;6.70;;;2.10;;
66485;SDS011;53303;47.476;8.084;2023-04-24T00:54:43;6.85;;;2.05;;
66485;SDS011;53303;47.476;8.084;2023-04-24T00:57:10;6.65;;;1.95;;
66485;SDS011;53303;47.476;8.084;2023-04-24T00:59:35;6.63;;;1.90;;
66485;SDS011;53303;47.476;8.084;2023-04-24T01:02:02;5.93;;;1.85;;
66485;SDS011;53303;47.476;8.084;2023-04-24T01:04:27;6.22;;;1.73;;
66485;SDS011;53303;47.476;8.084;2023-04-24T01:06:56;7.47;;;1.80;;
66485;SDS011;53303;47.476;8.084;2023-04-24T01:09:23;7.15;;;2.10;;
66485;SDS011;53303;47.476;8.084;2023-04-24T01:11:49;7.32;;;1.80;;
66485;SDS011;53303;47.476;8.084;2023-04-24T01:14:15;6.05;;;1.75;;
66485;SDS011;53303;47.476;8.084;2023-04-24T01:16:40;7.57;;;2.08;;
66485;SDS011;53303;47.476;8.084;2023-04-24T01:19:08;6.75;;;2.20;;
66485;SDS011;53303;47.476;8.084;2023-04-24T01:21:36;7.43;;;2.10;;
66485;SDS011;53303;47.476;8.084;2023-04-24T01:24:05;7.72;;;1.80;;
66485;SDS011;53303;47.476;8.084;2023-04-24T01:26:31;8.02;;;2.25;;
66485;SDS011;53303;47.476;8.084;2023-04-24T01:28:57;7.13;;;1.98;;
66485;SDS011;53303;47.476;8.084;2023-04-24T01:31:25;6.35;;;2.05;;
66485;SDS011;53303;47.476;8.084;2023-04-24T01:33:51;6.82;;;1.58;;
66485;SDS011;53303;47.476;8.084;2023-04-24T01:36:17;6.90;;;1.90;;
66485;SDS011;53303;47.476;8.084;2023-04-24T01:38:43;6.85;;;1.70;;
66485;SDS011;53303;47.476;8.084;2023-04-24T01:41:08;6.15;;;1.83;;
66485;SDS011;53303;47.476;8.084;2023-04-24T01:43:35;6.53;;;1.70;;
66485;SDS011;53303;47.476;8.084;2023-04-24T01:46:00;7.03;;;1.88;;
66485;SDS011;53303;47.476;8.084;2023-04-24T01:48:26;6.22;;;1.52;;
66485;SDS011;53303;47.476;8.084;2023-04-24T01:50:52;7.70;;;1.80;;
66485;SDS011;53303;47.476;8.084;2023-04-24T01:53:17;8.38;;;1.67;;
66485;SDS011;53303;47.476;8.084;2023-04-24T01:55:42;7.38;;;1.70;;
66485;SDS011;53303;47.476;8.084;2023-04-24T01:58:08;6.40;;;2.00;;
66485;SDS011;53303;47.476;8.084;2023-04-24T02:00:36;9.07;;;2.00;;
66485;SDS011;53303;47.476;8.084;2023-04-24T02:03:01;6.32;;;1.98;;
66485;SDS011;53303;47.476;8.084;2023-04-24T02:05:27;5.80;;;1.77;;
66485;SDS011;53303;47.476;8.084;2023-04-24T02:07:53;5.47;;;1.73;;
66485;SDS011;53303;47.476;8.084;2023-04-24T02:10:21;8.32;;;1.67;;
66485;SDS011;53303;47.476;8.084;2023-04-24T02:12:47;4.95;;;1.67;;
66485;SDS011;53303;47.476;8.084;2023-04-24T02:15:12;5.70;;;1.92;;
66485;SDS011;53303;47.476;8.084;2023-04-24T02:17:38;5.93;;;1.85;;
66485;SDS011;53303;47.476;8.084;2023-04-24T02:20:04;5.00;;;1.80;;
66485;SDS011;53303;47.476;8.084;2023-04-24T02:22:30;5.95;;;1.85;;
66485;SDS011;53303;47.476;8.084;2023-04-24T02:24:56;6.28;;;2.13;;
66485;SDS011;53303;47.476;8.084;2023-04-24T02:27:21;8.77;;;1.98;;
66485;SDS011;53303;47.476;8.084;2023-04-24T02:29:47;4.90;;;1.85;;
66485;SDS011;53303;47.476;8.084;2023-04-24T02:32:12;5.70;;;1.70;;
66485;SDS011;53303;47.476;8.084;2023-04-24T02:34:40;4.80;;;1.80;;
66485;SDS011;53303;47.476;8.084;2023-04-24T02:37:05;8.77;;;1.95;;
66485;SDS011;53303;47.476;8.084;2023-04-24T02:39:31;4.97;;;1.70;;
66485;SDS011;53303;47.476;8.084;2023-04-24T02:41:56;5.55;;;1.60;;
66485;SDS011;53303;47.476;8.084;2023-04-24T02:44:24;7.93;;;1.60;;
66485;SDS011;53303;47.476;8.084;2023-04-24T02:46:50;4.72;;;1.77;;
66485;SDS011;53303;47.476;8.084;2023-04-24T02:49:15;5.25;;;1.65;;
66485;SDS011;53303;47.476;8.084;2023-04-24T02:51:41;6.60;;;1.67;;
66485;SDS011;53303;47.476;8.084;2023-04-24T02:54:07;6.25;;;1.58;;
66485;SDS011;53303;47.476;8.084;2023-04-24T02:56:34;4.68;;;1.70;;
66485;SDS011;53303;47.476;8.084;2023-04-24T02:58:59;6.32;;;1.40;;
66485;SDS011;53303;47.476;8.084;2023-04-24T03:01:25;5.63;;;1.60;;
66485;SDS011;53303;47.476;8.084;2023-04-24T03:03:50;5.93;;;1.60;;
66485;SDS011;53303;47.476;8.084;2023-04-24T03:06:16;4.82;;;1.55;;
66485;SDS011;53303;47.476;8.084;2023-04-24T03:08:46;7.07;;;1.90;;
66485;SDS011;53303;47.476;8.084;2023-04-24T03:11:12;5.07;;;1.65;;
66485;SDS011;53303;47.476;8.084;2023-04-24T03:13:38;5.03;;;1.65;;
66485;SDS011;53303;47.476;8.084;2023-04-24T03:16:03;6.22;;;1.80;;
66485;SDS011;53303;47.476;8.084;2023-04-24T03:18:29;4.55;;;1.67;;
66485;SDS011;53303;47.476;8.084;2023-04-24T03:20:55;4.75;;;1.60;;
66485;SDS011;53303;47.476;8.084;2023-04-24T03:23:20;6.22;;;1.77;;
66485;SDS011;53303;47.476;8.084;2023-04-24T03:25:46;4.70;;;1.60;;
66485;SDS011;53303;47.476;8.084;2023-04-24T03:28:13;7.30;;;1.67;;
66485;SDS011;53303;47.476;8.084;2023-04-24T03:30:39;5.53;;;1.60;;
66485;SDS011;53303;47.476;8.084;2023-04-24T03:33:04;5.75;;;1.40;;
66485;SDS011;53303;47.476;8.084;2023-04-24T03:35:30;4.45;;;1.55;;
66485;SDS011;53303;47.476;8.084;2023-04-24T03:37:56;6.13;;;1.50;;
66485;SDS011;53303;47.476;8.084;2023-04-24T03:40:23;5.15;;;1.63;;
66485;SDS011;53303;47.476;8.084;2023-04-24T03:42:49;3.58;;;1.50;;
66485;SDS011;53303;47.476;8.084;2023-04-24T03:45:14;5.30;;;1.70;;
66485;SDS011;53303;47.476;8.084;2023-04-24T03:47:42;5.88;;;2.20;;
66485;SDS011;53303;47.476;8.084;2023-04-24T03:50:07;3.97;;;1.30;;
66485;SDS011;53303;47.476;8.084;2023-04-24T03:52:33;4.50;;;1.65;;
66485;SDS011;53303;47.476;8.084;2023-04-24T03:54:58;4.35;;;1.40;;
66485;SDS011;53303;47.476;8.084;2023-04-24T03:57:26;6.95;;;1.83;;
66485;SDS011;53303;47.476;8.084;2023-04-24T03:59:52;6.38;;;1.52;;
66485;SDS011;53303;47.476;8.084;2023-04-24T04:02:20;3.58;;;1.40;;
66485;SDS011;53303;47.476;8.084;2023-04-24T04:04:46;4.10;;;1.52;;
66485;SDS011;53303;47.476;8.084;2023-04-24T04:07:11;3.90;;;1.50;;
66485;SDS011;53303;47.476;8.084;2023-04-24T04:09:37;5.13;;;1.42;;
66485;SDS011;53303;47.476;8.084;2023-04-24T04:12:05;4.00;;;1.42;;
66485;SDS011;53303;47.476;8.084;2023-04-24T04:14:31;6.38;;;1.70;;
66485;SDS011;53303;47.476;8.084;2023-04-24T04:16:56;5.18;;;1.50;;
66485;SDS011;53303;47.476;8.084;2023-04-24T04:19:21;5.00;;;1.77;;
66485;SDS011;53303;47.476;8.084;2023-04-24T04:21:47;4.22;;;1.40;;
66485;SDS011;53303;47.476;8.084;2023-04-24T04:24:17;5.50;;;1.40;;
66485;SDS011;53303;47.476;8.084;2023-04-24T04:26:43;5.55;;;1.42;;
66485;SDS011;53303;47.476;8.084;2023-04-24T04:29:12;6.55;;;1.80;;
66485;SDS011;53303;47.476;8.084;2023-04-24T04:31:38;6.40;;;1.52;;
66485;SDS011;53303;47.476;8.084;2023-04-24T04:34:03;3.78;;;1.50;;
66485;SDS011;53303;47.476;8.084;2023-04-24T04:36:29;4.65;;;1.45;;
66485;SDS011;53303;47.476;8.084;2023-04-24T04:38:57;4.47;;;1.55;;
66485;SDS011;53303;47.476;8.084;2023-04-24T04:41:24;5.13;;;1.50;;
66485;SDS011;53303;47.476;8.084;2023-04-24T04:43:52;6.20;;;1.50;;
66485;SDS011;53303;47.476;8.084;2023-04-24T04:46:17;5.47;;;1.73;;
66485;SDS011;53303;47.476;8.084;2023-04-24T04:48:45;4.82;;;1.42;;
66485;SDS011;53303;47.476;8.084;2023-04-24T04:51:10;6.82;;;1.73;;
66485;SDS011;53303;47.476;8.084;2023-04-24T04:53:39;6.15;;;1.83;;
66485;SDS011;53303;47.476;8.084;2023-04-24T04:56:04;5.45;;;1.65;;
66485;SDS011;53303;47.476;8.084;2023-04-24T04:58:30;6.25;;;1.45;;
66485;SDS011;53303;47.476;8.084;2023-04-24T05:00:55;5.97;;;1.92;;
66485;SDS011;53303;47.476;8.084;2023-04-24T05:03:22;5.50;;;1.55;;
66485;SDS011;53303;47.476;8.084;2023-04-24T05:05:47;4.30;;;1.42;;
66485;SDS011;53303;47.476;8.084;2023-04-24T05:08:13;8.00;;;1.70;;
66485;SDS011;53303;47.476;8.084;2023-04-24T05:10:38;7.15;;;1.48;;
66485;SDS011;53303;47.476;8.084;2023-04-24T05:13:09;7.88;;;1.80;;
66485;SDS011;53303;47.476;8.084;2023-04-24T05:15:37;4.90;;;1.50;;
66485;SDS011;53303;47.476;8.084;2023-04-24T05:18:07;4.10;;;1.60;;
66485;SDS011;53303;47.476;8.084;2023-04-24T05:20:32;5.03;;;1.40;;
66485;SDS011;53303;47.476;8.084;2023-04-24T05:22:58;4.60;;;1.48;;
66485;SDS011;53303;47.476;8.084;2023-04-24T05:25:23;4.82;;;1.50;;
66485;SDS011;53303;47.476;8.084;2023-04-24T05:27:51;4.93;;;1.60;;
66485;SDS011;53303;47.476;8.084;2023-04-24T05:30:18;6.47;;;1.70;;
66485;SDS011;53303;47.476;8.084;2023-04-24T05:32:43;7.20;;;1.55;;
66485;SDS011;53303;47.476;8.084;2023-04-24T05:35:09;4.68;;;1.58;;
66485;SDS011;53303;47.476;8.084;2023-04-24T05:37:38;5.70;;;1.50;;
66485;SDS011;53303;47.476;8.084;2023-04-24T05:40:03;4.20;;;1.48;;
66485;SDS011;53303;47.476;8.084;2023-04-24T05:42:30;4.50;;;1.40;;
66485;SDS011;53303;47.476;8.084;2023-04-24T05:44:56;5.00;;;1.50;;
66485;SDS011;53303;47.476;8.084;2023-04-24T05:47:21;5.10;;;1.50;;
66485;SDS011;53303;47.476;8.084;2023-04-24T05:49:47;5.05;;;1.52;;
66485;SDS011;53303;47.476;8.084;2023-04-24T05:52:13;5.38;;;1.60;;
66485;SDS011;53303;47.476;8.084;2023-04-24T05:54:38;5.05;;;1.70;;
66485;SDS011;53303;47.476;8.084;2023-04-24T05:57:04;4.22;;;1.55;;
66485;SDS011;53303;47.476;8.084;2023-04-24T05:59:32;5.38;;;1.80;;
66485;SDS011;53303;47.476;8.084;2023-04-24T06:01:58;5.45;;;1.48;;
66485;SDS011;53303;47.476;8.084;2023-04-24T06:04:24;4.55;;;1.50;;
66485;SDS011;53303;47.476;8.084;2023-04-24T06:06:50;5.57;;;1.35;;
66485;SDS011;53303;47.476;8.084;2023-04-24T06:09:20;13.45;;;2.00;;
66485;SDS011;53303;47.476;8.084;2023-04-24T06:11:47;11.45;;;2.08;;
66485;SDS011;53303;47.476;8.084;2023-04-24T06:14:12;21.05;;;2.35;;
66485;SDS011;53303;47.476;8.084;2023-04-24T06:16:40;13.00;;;2.83;;
66485;SDS011;53303;47.476;8.084;2023-04-24T06:19:08;12.60;;;2.17;;
66485;SDS011;53303;47.476;8.084;2023-04-24T06:21:33;13.48;;;2.30;;
66485;SDS011;53303;47.476;8.084;2023-04-24T06:23:58;12.80;;;2.20;;
66485;SDS011;53303;47.476;8.084;2023-04-24T06:26:24;14.27;;;2.30;;
66485;SDS011;53303;47.476;8.084;2023-04-24T06:28:51;9.80;;;1.90;;
66485;SDS011;53303;47.476;8.084;2023-04-24T06:31:18;15.93;;;2.20;;
66485;SDS011;53303;47.476;8.084;2023-04-24T06:33:44;9.45;;;2.10;;
66485;SDS011;53303;47.476;8.084;2023-04-24T06:36:10;10.15;;;2.22;;
66485;SDS011;53303;47.476;8.084;2023-04-24T06:38:35;9.10;;;1.90;;
66485;SDS011;53303;47.476;8.084;2023-04-24T06:41:01;11.65;;;2.42;;
66485;SDS011;53303;47.476;8.084;2023-04-24T06:43:26;15.30;;;2.20;;
66485;SDS011;53303;47.476;8.084;2023-04-24T06:45:52;12.05;;;2.10;;
66485;SDS011;53303;47.476;8.084;2023-04-24T06:48:20;8.68;;;1.75;;
66485;SDS011;53303;47.476;8.084;2023-04-24T06:50:45;9.00;;;1.88;;
66485;SDS011;53303;47.476;8.084;2023-04-24T06:53:11;10.93;;;2.30;;
66485;SDS011;53303;47.476;8.084;2023-04-24T06:55:39;9.55;;;1.98;;
66485;SDS011;53303;47.476;8.084;2023-04-24T06:58:05;8.23;;;2.00;;
66485;SDS011;53303;47.476;8.084;2023-04-24T07:00:31;9.38;;;2.00;;
66485;SDS011;53303;47.476;8.084;2023-04-24T07:02:56;8.85;;;1.83;;
66485;SDS011;53303;47.476;8.084;2023-04-24T07:05:24;10.50;;;1.92;;
66485;SDS011;53303;47.476;8.084;2023-04-24T07:07:50;11.48;;;2.50;;
66485;SDS011;53303;47.476;8.084;2023-04-24T07:10:16;9.45;;;2.00;;
66485;SDS011;53303;47.476;8.084;2023-04-24T07:12:45;6.20;;;1.83;;
66485;SDS011;53303;47.476;8.084;2023-04-24T07:15:11;8.90;;;2.05;;
66485;SDS011;53303;47.476;8.084;2023-04-24T07:17:37;8.63;;;1.63;;
66485;SDS011;53303;47.476;8.084;2023-04-24T07:20:03;8.13;;;2.25;;
66485;SDS011;53303;47.476;8.084;2023-04-24T07:22:34;8.50;;;2.00;;
66485;SDS011;53303;47.476;8.084;2023-04-24T07:24:59;7.93;;;1.60;;
66485;SDS011;53303;47.476;8.084;2023-04-24T07:27:25;8.98;;;1.95;;
66485;SDS011;53303;47.476;8.084;2023-04-24T07:29:52;5.00;;;1.75;;
66485;SDS011;53303;47.476;8.084;2023-04-24T07:32:18;7.82;;;1.70;;
66485;SDS011;53303;47.476;8.084;2023-04-24T07:34:43;6.72;;;1.65;;
66485;SDS011;53303;47.476;8.084;2023-04-24T07:37:09;9.68;;;1.95;;
66485;SDS011;53303;47.476;8.084;2023-04-24T07:39:34;8.23;;;1.73;;
66485;SDS011;53303;47.476;8.084;2023-04-24T07:42:00;6.78;;;1.92;;
66485;SDS011;53303;47.476;8.084;2023-04-24T07:44:26;9.77;;;2.22;;
66485;SDS011;53303;47.476;8.084;2023-04-24T07:46:51;7.13;;;2.30;;
66485;SDS011;53303;47.476;8.084;2023-04-24T07:49:17;5.82;;;1.85;;
66485;SDS011;53303;47.476;8.084;2023-04-24T07:51:42;7.47;;;1.85;;
66485;SDS011;53303;47.476;8.084;2023-04-24T07:54:08;6.93;;;1.80;;
66485;SDS011;53303;47.476;8.084;2023-04-24T07:56:33;7.25;;;1.85;;
66485;SDS011;53303;47.476;8.084;2023-04-24T07:58:59;8.05;;;1.75;;
66485;SDS011;53303;47.476;8.084;2023-04-24T08:01:26;8.57;;;1.88;;
66485;SDS011;53303;47.476;8.084;2023-04-24T08:03:51;6.57;;;1.77;;
66485;SDS011;53303;47.476;8.084;2023-04-24T08:06:17;7.22;;;1.80;;
66485;SDS011;53303;47.476;8.084;2023-04-24T08:08:42;4.88;;;1.70;;
66485;SDS011;53303;47.476;8.084;2023-04-24T08:11:08;5.85;;;1.80;;
66485;SDS011;53303;47.476;8.084;2023-04-24T08:13:33;4.97;;;1.80;;
66485;SDS011;53303;47.476;8.084;2023-04-24T08:15:59;5.60;;;1.85;;
66485;SDS011;53303;47.476;8.084;2023-04-24T08:18:24;4.72;;;1.60;;
66485;SDS011;53303;47.476;8.084;2023-04-24T08:20:50;8.63;;;1.80;;
66485;SDS011;53303;47.476;8.084;2023-04-24T08:23:15;4.90;;;1.38;;
66485;SDS011;53303;47.476;8.084;2023-04-24T08:25:41;5.35;;;1.67;;
66485;SDS011;53303;47.476;8.084;2023-04-24T08:28:06;7.68;;;2.00;;
66485;SDS011;53303;47.476;8.084;2023-04-24T08:30:34;14.57;;;2.17;;
66485;SDS011;53303;47.476;8.084;2023-04-24T08:32:59;15.82;;;2.53;;
66485;SDS011;53303;47.476;8.084;2023-04-24T08:35:27;12.90;;;2.72;;
66485;SDS011;53303;47.476;8.084;2023-04-24T08:37:53;13.82;;;2.22;;
66485;SDS011;53303;47.476;8.084;2023-04-24T08:40:18;17.48;;;2.15;;
66485;SDS011;53303;47.476;8.084;2023-04-24T08:42:52;12.75;;;2.10;;
66485;SDS011;53303;47.476;8.084;2023-04-24T08:45:22;27.27;;;2.55;;
66485;SDS011;53303;47.476;8.084;2023-04-24T08:47:49;15.27;;;2.33;;
66485;SDS011;53303;47.476;8.084;2023-04-24T08:50:17;11.55;;;2.22;;
66485;SDS011;53303;47.476;8.084;2023-04-24T08:52:42;12.15;;;2.53;;
66485;SDS011;53303;47.476;8.084;2023-04-24T08:55:08;37.38;;;4.35;;
66485;SDS011;53303;47.476;8.084;2023-04-24T08:57:34;19.35;;;2.67;;
66485;SDS011;53303;47.476;8.084;2023-04-24T09:00:01;16.90;;;2.88;;
66485;SDS011;53303;47.476;8.084;2023-04-24T09:02:27;29.75;;;3.20;;
66485;SDS011;53303;47.476;8.084;2023-04-24T09:04:55;42.15;;;3.95;;
66485;SDS011;53303;47.476;8.084;2023-04-24T09:07:27;29.20;;;3.80;;
66485;SDS011;53303;47.476;8.084;2023-04-24T09:09:55;19.77;;;3.05;;
66485;SDS011;53303;47.476;8.084;2023-04-24T09:12:24;17.30;;;2.47;;
66485;SDS011;53303;47.476;8.084;2023-04-24T09:14:49;19.77;;;2.58;;
66485;SDS011;53303;47.476;8.084;2023-04-24T09:17:16;39.50;;;3.97;;
66485;SDS011;53303;47.476;8.084;2023-04-24T09:19:41;37.30;;;4.20;;
66485;SDS011;53303;47.476;8.084;2023-04-24T09:22:07;38.30;;;4.03;;
66485;SDS011;53303;47.476;8.084;2023-04-24T09:24:33;29.80;;;3.28;;
66485;SDS011;53303;47.476;8.084;2023-04-24T09:26:59;53.20;;;4.68;;
66485;SDS011;53303;47.476;8.084;2023-04-24T09:29:29;34.97;;;2.95;;
66485;SDS011;53303;47.476;8.084;2023-04-24T09:31:55;53.38;;;4.22;;
66485;SDS011;53303;47.476;8.084;2023-04-24T09:34:21;23.50;;;3.10;;
66485;SDS011;53303;47.476;8.084;2023-04-24T09:36:49;29.27;;;3.30;;
66485;SDS011;53303;47.476;8.084;2023-04-24T09:39:15;32.90;;;3.33;;
66485;SDS011;53303;47.476;8.084;2023-04-24T09:41:54;23.98;;;3.50;;
66485;SDS011;53303;47.476;8.084;2023-04-24T09:44:23;21.10;;;3.10;;
66485;SDS011;53303;47.476;8.084;2023-04-24T09:46:51;29.77;;;3.17;;
66485;SDS011;53303;47.476;8.084;2023-04-24T09:49:23;14.85;;;1.90;;
66485;SDS011;53303;47.476;8.084;2023-04-24T09:52:05;7.63;;;1.67;;
66485;SDS011;53303;47.476;8.084;2023-04-24T09:54:31;10.05;;;1.75;;
66485;SDS011;53303;47.476;8.084;2023-04-24T09:56:58;5.88;;;1.75;;
66485;SDS011;53303;47.476;8.084;2023-04-24T09:59:24;8.93;;;2.05;;
66485;SDS011;53303;47.476;8.084;2023-04-24T10:01:50;5.65;;;1.58;;
66485;SDS011;53303;47.476;8.084;2023-04-24T10:04:23;6.95;;;1.70;;
66485;SDS011;53303;47.476;8.084;2023-04-24T10:06:51;8.48;;;1.85;;
66485;SDS011;53303;47.476;8.084;2023-04-24T10:09:18;7.28;;;1.80;;
66485;SDS011;53303;47.476;8.084;2023-04-24T10:11:46;21.98;;;2.53;;
66485;SDS011;53303;47.476;8.084;2023-04-24T10:14:14;40.63;;;4.35;;
66485;SDS011;53303;47.476;8.084;2023-04-24T10:16:42;23.42;;;2.30;;
66485;SDS011;53303;47.476;8.084;2023-04-24T10:19:08;24.00;;;2.45;;
66485;SDS011;53303;47.476;8.084;2023-04-24T10:21:34;17.35;;;2.50;;
66485;SDS011;53303;47.476;8.084;2023-04-24T10:24:02;28.83;;;2.88;;
66485;SDS011;53303;47.476;8.084;2023-04-24T10:26:32;30.00;;;3.35;;
66485;SDS011;53303;47.476;8.084;2023-04-24T10:28:58;40.00;;;3.60;;
66485;SDS011;53303;47.476;8.084;2023-04-24T10:31:25;20.23;;;2.97;;
66485;SDS011;53303;47.476;8.084;2023-04-24T10:33:52;24.35;;;2.85;;
66485;SDS011;53303;47.476;8.084;2023-04-24T10:36:19;14.02;;;1.60;;
66485;SDS011;53303;47.476;8.084;2023-04-24T10:38:52;16.83;;;2.20;;
66485;SDS011;53303;47.476;8.084;2023-04-24T10:41:21;23.73;;;2.75;;
66485;SDS011;53303;47.476;8.084;2023-04-24T10:44:10;8.93;;;1.80;;
66485;SDS011;53303;47.476;8.084;2023-04-24T10:46:35;14.23;;;1.80;;
66485;SDS011;53303;47.476;8.084;2023-04-24T10:49:05;8.70;;;1.85;;
66485;SDS011;53303;47.476;8.084;2023-04-24T10:51:52;10.93;;;1.95;;
66485;SDS011;53303;47.476;8.084;2023-04-24T10:54:22;10.77;;;2.38;;
66485;SDS011;53303;47.476;8.084;2023-04-24T10:59:49;14.30;;;1.88;;
66485;SDS011;53303;47.476;8.084;2023-04-24T11:02:38;10.20;;;1.73;;
66485;SDS011;53303;47.476;8.084;2023-04-24T11:05:13;10.98;;;1.50;;
66485;SDS011;53303;47.476;8.084;2023-04-24T11:10:41;8.02;;;1.70;;
66485;SDS011;53303;47.476;8.084;2023-04-24T11:13:10;13.27;;;2.00;;
66485;SDS011;53303;47.476;8.084;2023-04-24T11:15:35;4.72;;;1.63;;
66485;SDS011;53303;47.476;8.084;2023-04-24T11:18:01;6.30;;;1.63;;
66485;SDS011;53303;47.476;8.084;2023-04-24T11:20:26;6.43;;;1.42;;
66485;SDS011;53303;47.476;8.084;2023-04-24T11:22:55;5.25;;;1.50;;
66485;SDS011;53303;47.476;8.084;2023-04-24T11:25:22;5.85;;;1.70;;
66485;SDS011;53303;47.476;8.084;2023-04-24T11:27:48;6.68;;;1.70;;
66485;SDS011;53303;47.476;8.084;2023-04-24T11:30:18;4.55;;;1.20;;
66485;SDS011;53303;47.476;8.084;2023-04-24T11:32:47;4.22;;;1.23;;
66485;SDS011;53303;47.476;8.084;2023-04-24T11:37:44;4.63;;;1.33;;
66485;SDS011;53303;47.476;8.084;2023-04-24T11:40:17;5.18;;;1.67;;
66485;SDS011;53303;47.476;8.084;2023-04-24T11:42:48;3.72;;;1.30;;
66485;SDS011;53303;47.476;8.084;2023-04-24T11:45:22;4.13;;;1.60;;
66485;SDS011;53303;47.476;8.084;2023-04-24T11:47:49;4.40;;;1.60;;
66485;SDS011;53303;47.476;8.084;2023-04-24T11:50:18;6.38;;;1.50;;
66485;SDS011;53303;47.476;8.084;2023-04-24T11:52:48;4.72;;;1.40;;
66485;SDS011;53303;47.476;8.084;2023-04-24T11:57:42;3.03;;;1.40;;
66485;SDS011;53303;47.476;8.084;2023-04-24T12:00:14;3.92;;;1.40;;
66485;SDS011;53303;47.476;8.084;2023-04-24T12:02:43;5.35;;;1.42;;
66485;SDS011;53303;47.476;8.084;2023-04-24T12:05:09;4.68;;;1.40;;
66485;SDS011;53303;47.476;8.084;2023-04-24T12:07:43;4.80;;;1.58;;
66485;SDS011;53303;47.476;8.084;2023-04-24T12:10:09;5.55;;;1.48;;
66485;SDS011;53303;47.476;8.084;2023-04-24T12:12:37;4.88;;;1.50;;
66485;SDS011;53303;47.476;8.084;2023-04-24T12:15:06;6.70;;;1.65;;
66485;SDS011;53303;47.476;8.084;2023-04-24T12:17:33;3.60;;;1.45;;
66485;SDS011;53303;47.476;8.084;2023-04-24T12:20:01;3.08;;;1.40;;
66485;SDS011;53303;47.476;8.084;2023-04-24T12:25:16;7.70;;;1.50;;
66485;SDS011;53303;47.476;8.084;2023-04-24T12:27:44;2.15;;;1.00;;
66485;SDS011;53303;47.476;8.084;2023-04-24T12:30:14;4.05;;;1.00;;
66485;SDS011;53303;47.476;8.084;2023-04-24T12:32:47;3.55;;;1.20;;
66485;SDS011;53303;47.476;8.084;2023-04-24T12:35:18;2.80;;;1.10;;
66485;SDS011;53303;47.476;8.084;2023-04-24T12:40:11;6.35;;;1.40;;
66485;SDS011;53303;47.476;8.084;2023-04-24T12:42:47;3.55;;;1.15;;
66485;SDS011;53303;47.476;8.084;2023-04-24T12:45:16;2.90;;;1.20;;
66485;SDS011;53303;47.476;8.084;2023-04-24T12:47:43;2.20;;;1.10;;
66485;SDS011;53303;47.476;8.084;2023-04-24T12:50:10;6.05;;;1.63;;
66485;SDS011;53303;47.476;8.084;2023-04-24T12:52:38;13.23;;;2.05;;
66485;SDS011;53303;47.476;8.084;2023-04-24T12:55:07;6.93;;;1.52;;
66485;SDS011;53303;47.476;8.084;2023-04-24T12:57:33;5.75;;;1.70;;
66485;SDS011;53303;47.476;8.084;2023-04-24T12:59:59;7.47;;;2.20;;
66485;SDS011;53303;47.476;8.084;2023-04-24T13:02:26;12.27;;;3.17;;
66485;SDS011;53303;47.476;8.084;2023-04-24T13:04:57;8.93;;;2.85;;
66485;SDS011;53303;47.476;8.084;2023-04-24T13:07:23;9.27;;;3.13;;
66485;SDS011;53303;47.476;8.084;2023-04-24T13:09:50;14.05;;;2.92;;
66485;SDS011;53303;47.476;8.084;2023-04-24T13:12:16;13.88;;;3.10;;
66485;SDS011;53303;47.476;8.084;2023-04-24T13:14:45;16.60;;;3.70;;
66485;SDS011;53303;47.476;8.084;2023-04-24T13:17:11;8.13;;;2.55;;
66485;SDS011;53303;47.476;8.084;2023-04-24T13:19:38;21.92;;;3.53;;
66485;SDS011;53303;47.476;8.084;2023-04-24T13:22:06;11.18;;;2.90;;
66485;SDS011;53303;47.476;8.084;2023-04-24T13:24:32;10.23;;;3.22;;
66485;SDS011;53303;47.476;8.084;2023-04-24T13:26:58;11.60;;;3.30;;
66485;SDS011;53303;47.476;8.084;2023-04-24T13:29:25;9.75;;;3.08;;
66485;SDS011;53303;47.476;8.084;2023-04-24T13:31:50;8.80;;;3.00;;
66485;SDS011;53303;47.476;8.084;2023-04-24T13:34:20;21.05;;;3.80;;
66485;SDS011;53303;47.476;8.084;2023-04-24T13:36:46;17.50;;;3.60;;
66485;SDS011;53303;47.476;8.084;2023-04-24T13:39:11;23.65;;;5.00;;
66485;SDS011;53303;47.476;8.084;2023-04-24T13:41:37;31.75;;;4.85;;
66485;SDS011;53303;47.476;8.084;2023-04-24T13:44:03;36.53;;;4.43;;
66485;SDS011;53303;47.476;8.084;2023-04-24T13:46:29;22.15;;;3.75;;
66485;SDS011;53303;47.476;8.084;2023-04-24T13:48:57;14.80;;;3.40;;
66485;SDS011;53303;47.476;8.084;2023-04-24T13:51:23;16.20;;;3.22;;
66485;SDS011;53303;47.476;8.084;2023-04-24T13:53:52;27.98;;;3.80;;
66485;SDS011;53303;47.476;8.084;2023-04-24T13:56:17;14.38;;;3.17;;
66485;SDS011;53303;47.476;8.084;2023-04-24T13:58:43;10.95;;;3.10;;
66485;SDS011;53303;47.476;8.084;2023-04-24T14:01:08;16.15;;;3.50;;
66485;SDS011;53303;47.476;8.084;2023-04-24T14:03:34;108.40;;;9.32;;
66485;SDS011;53303;47.476;8.084;2023-04-24T14:05:59;21.88;;;4.65;;
66485;SDS011;53303;47.476;8.084;2023-04-24T14:08:24;18.17;;;4.15;;
66485;SDS011;53303;47.476;8.084;2023-04-24T14:10:53;24.38;;;4.38;;
66485;SDS011;53303;47.476;8.084;2023-04-24T14:13:20;19.23;;;3.97;;
66485;SDS011;53303;47.476;8.084;2023-04-24T14:15:46;19.35;;;3.92;;
66485;SDS011;53303;47.476;8.084;2023-04-24T14:18:11;35.03;;;4.68;;
66485;SDS011;53303;47.476;8.084;2023-04-24T14:20:37;16.58;;;3.17;;
66485;SDS011;53303;47.476;8.084;2023-04-24T14:23:03;13.93;;;2.75;;
66485;SDS011;53303;47.476;8.084;2023-04-24T14:25:31;15.57;;;3.28;;
66485;SDS011;53303;47.476;8.084;2023-04-24T14:27:57;13.30;;;2.95;;
66485;SDS011;53303;47.476;8.084;2023-04-24T14:30:22;10.52;;;3.00;;
66485;SDS011;53303;47.476;8.084;2023-04-24T14:32:48;11.25;;;2.53;;
66485;SDS011;53303;47.476;8.084;2023-04-24T14:35:13;8.77;;;2.63;;
66485;SDS011;53303;47.476;8.084;2023-04-24T14:37:39;9.95;;;2.63;;
66485;SDS011;53303;47.476;8.084;2023-04-24T14:40:06;8.85;;;2.78;;
66485;SDS011;53303;47.476;8.084;2023-04-24T14:42:33;13.27;;;2.63;;
66485;SDS011;53303;47.476;8.084;2023-04-24T14:44:58;10.32;;;2.55;;
66485;SDS011;53303;47.476;8.084;2023-04-24T14:47:24;8.95;;;2.50;;
66485;SDS011;53303;47.476;8.084;2023-04-24T14:49:50;8.07;;;2.72;;
66485;SDS011;53303;47.476;8.084;2023-04-24T14:52:15;8.55;;;2.65;;
66485;SDS011;53303;47.476;8.084;2023-04-24T14:54:41;9.50;;;3.03;;
66485;SDS011;53303;47.476;8.084;2023-04-24T14:57:08;9.15;;;2.78;;